sensor_id;sensor_type;location;lat;lon;timestamp;P1;durP1;ratioP1;P2;durP2;ratioP2
66020;SDS011;52789;59.980;30.346;2022-12-29T00:01:23;6.40;;;4.80;;
66020;SDS011;52789;59.980;30.346;2022-12-29T00:03:48;6.57;;;4.93;;
66020;SDS011;52789;59.980;30.346;2022-12-29T00:06:14;7.67;;;4.47;;
66020;SDS011;52789;59.980;30.346;2022-12-29T00:08:39;6.60;;;4.53;;
66020;SDS011;52789;59.980;30.346;2022-12-29T00:11:06;6.17;;;4.53;;
66020;SDS011;52789;59.980;30.346;2022-12-29T00:13:33;10.00;;;4.70;;
66020;SDS011;52789;59.980;30.346;2022-12-29T00:16:17;7.93;;;4.30;;
66020;SDS011;52789;59.980;30.346;2022-12-29T00:18:43;9.23;;;4.00;;
66020;SDS011;52789;59.980;30.346;2022-12-29T00:21:15;4.77;;;3.23;;
66020;SDS011;52789;59.980;30.346;2022-12-29T00:24:01;4.60;;;3.27;;
66020;SDS011;52789;59.980;30.346;2022-12-29T00:29:50;7.57;;;3.83;;
66020;SDS011;52789;59.980;30.346;2022-12-29T00:32:33;5.43;;;4.20;;
66020;SDS011;52789;59.980;30.346;2022-12-29T00:35:22;4.57;;;3.60;;
66020;SDS011;52789;59.980;30.346;2022-12-29T00:37:51;6.30;;;3.40;;
66020;SDS011;52789;59.980;30.346;2022-12-29T00:40:36;8.50;;;4.97;;
66020;SDS011;52789;59.980;30.346;2022-12-29T00:43:20;8.13;;;3.47;;
66020;SDS011;52789;59.980;30.346;2022-12-29T00:46:04;5.50;;;2.77;;
66020;SDS011;52789;59.980;30.346;2022-12-29T00:48:29;5.67;;;3.60;;
66020;SDS011;52789;59.980;30.346;2022-12-29T00:51:13;4.00;;;2.40;;
66020;SDS011;52789;59.980;30.346;2022-12-29T00:53:38;10.77;;;2.43;;
66020;SDS011;52789;59.980;30.346;2022-12-29T00:56:04;3.03;;;2.00;;
66020;SDS011;52789;59.980;30.346;2022-12-29T00:58:30;5.83;;;2.40;;
66020;SDS011;52789;59.980;30.346;2022-12-29T01:01:05;5.03;;;2.20;;
66020;SDS011;52789;59.980;30.346;2022-12-29T01:03:36;3.50;;;2.20;;
66020;SDS011;52789;59.980;30.346;2022-12-29T01:06:03;4.33;;;2.40;;
66020;SDS011;52789;59.980;30.346;2022-12-29T01:08:31;2.80;;;2.15;;
66020;SDS011;52789;59.980;30.346;2022-12-29T01:11:00;4.73;;;2.90;;
66020;SDS011;52789;59.980;30.346;2022-12-29T01:13:34;5.13;;;2.30;;
66020;SDS011;52789;59.980;30.346;2022-12-29T01:16:01;5.10;;;2.57;;
66020;SDS011;52789;59.980;30.346;2022-12-29T01:18:27;3.33;;;2.43;;
66020;SDS011;52789;59.980;30.346;2022-12-29T01:20:58;3.87;;;2.60;;
66020;SDS011;52789;59.980;30.346;2022-12-29T01:23:28;3.80;;;2.30;;
66020;SDS011;52789;59.980;30.346;2022-12-29T01:25:54;4.80;;;2.60;;
66020;SDS011;52789;59.980;30.346;2022-12-29T01:28:20;12.47;;;2.63;;
66020;SDS011;52789;59.980;30.346;2022-12-29T01:30:46;2.43;;;1.87;;
66020;SDS011;52789;59.980;30.346;2022-12-29T01:33:11;3.07;;;2.10;;
66020;SDS011;52789;59.980;30.346;2022-12-29T01:35:37;2.47;;;1.97;;
66020;SDS011;52789;59.980;30.346;2022-12-29T01:38:02;3.80;;;2.00;;
66020;SDS011;52789;59.980;30.346;2022-12-29T01:40:28;3.77;;;2.10;;
66020;SDS011;52789;59.980;30.346;2022-12-29T01:42:53;5.23;;;2.23;;
66020;SDS011;52789;59.980;30.346;2022-12-29T01:45:22;4.57;;;2.03;;
66020;SDS011;52789;59.980;30.346;2022-12-29T01:48:02;8.32;;;3.05;;
66020;SDS011;52789;59.980;30.346;2022-12-29T01:50:30;7.63;;;2.10;;
66020;SDS011;52789;59.980;30.346;2022-12-29T01:52:59;3.33;;;2.05;;
66020;SDS011;52789;59.980;30.346;2022-12-29T01:55:38;2.15;;;1.95;;
66020;SDS011;52789;59.980;30.346;2022-12-29T01:58:09;3.93;;;1.90;;
66020;SDS011;52789;59.980;30.346;2022-12-29T02:00:38;5.20;;;2.40;;
66020;SDS011;52789;59.980;30.346;2022-12-29T02:03:03;4.27;;;2.23;;
66020;SDS011;52789;59.980;30.346;2022-12-29T02:05:36;2.90;;;1.83;;
66020;SDS011;52789;59.980;30.346;2022-12-29T02:08:07;8.50;;;3.13;;
66020;SDS011;52789;59.980;30.346;2022-12-29T02:10:35;6.30;;;2.07;;
66020;SDS011;52789;59.980;30.346;2022-12-29T02:13:01;5.73;;;3.10;;
66020;SDS011;52789;59.980;30.346;2022-12-29T02:38:11;6.13;;;3.23;;
66020;SDS011;52789;59.980;30.346;2022-12-29T02:44:14;5.20;;;2.80;;
66020;SDS011;52789;59.980;30.346;2022-12-29T02:46:53;6.47;;;2.80;;
66020;SDS011;52789;59.980;30.346;2022-12-29T02:49:26;5.40;;;2.60;;
66020;SDS011;52789;59.980;30.346;2022-12-29T02:52:15;7.27;;;2.90;;
66020;SDS011;52789;59.980;30.346;2022-12-29T02:54:43;10.40;;;2.73;;
66020;SDS011;52789;59.980;30.346;2022-12-29T02:57:29;6.53;;;2.57;;
66020;SDS011;52789;59.980;30.346;2022-12-29T02:59:58;3.90;;;2.05;;
66020;SDS011;52789;59.980;30.346;2022-12-29T03:17:03;8.20;;;2.67;;
66020;SDS011;52789;59.980;30.346;2022-12-29T03:19:36;7.07;;;2.77;;
66020;SDS011;52789;59.980;30.346;2022-12-29T03:22:14;3.57;;;2.87;;
66020;SDS011;52789;59.980;30.346;2022-12-29T03:24:53;3.10;;;2.60;;
66020;SDS011;52789;59.980;30.346;2022-12-29T03:27:24;3.87;;;2.77;;
66020;SDS011;52789;59.980;30.346;2022-12-29T03:29:55;4.00;;;2.23;;
66020;SDS011;52789;59.980;30.346;2022-12-29T03:32:26;3.87;;;2.80;;
66020;SDS011;52789;59.980;30.346;2022-12-29T03:34:57;4.97;;;3.20;;
66020;SDS011;52789;59.980;30.346;2022-12-29T03:37:26;5.63;;;3.13;;
66020;SDS011;52789;59.980;30.346;2022-12-29T03:39:56;6.50;;;3.30;;
66020;SDS011;52789;59.980;30.346;2022-12-29T03:42:24;3.67;;;2.50;;
66020;SDS011;52789;59.980;30.346;2022-12-29T03:44:54;7.17;;;2.63;;
66020;SDS011;52789;59.980;30.346;2022-12-29T03:47:21;8.57;;;2.33;;
66020;SDS011;52789;59.980;30.346;2022-12-29T03:49:48;4.03;;;2.50;;
66020;SDS011;52789;59.980;30.346;2022-12-29T03:52:14;5.27;;;2.73;;
66020;SDS011;52789;59.980;30.346;2022-12-29T03:54:40;3.27;;;2.60;;
66020;SDS011;52789;59.980;30.346;2022-12-29T03:57:05;6.13;;;2.50;;
66020;SDS011;52789;59.980;30.346;2022-12-29T03:59:31;4.27;;;2.60;;
66020;SDS011;52789;59.980;30.346;2022-12-29T04:01:56;8.67;;;2.80;;
66020;SDS011;52789;59.980;30.346;2022-12-29T04:04:22;8.53;;;2.97;;
66020;SDS011;52789;59.980;30.346;2022-12-29T04:06:48;7.93;;;4.03;;
66020;SDS011;52789;59.980;30.346;2022-12-29T04:09:13;5.33;;;2.53;;
66020;SDS011;52789;59.980;30.346;2022-12-29T04:11:39;4.80;;;3.13;;
66020;SDS011;52789;59.980;30.346;2022-12-29T04:14:04;5.63;;;3.03;;
66020;SDS011;52789;59.980;30.346;2022-12-29T04:16:30;4.80;;;3.33;;
66020;SDS011;52789;59.980;30.346;2022-12-29T04:18:56;5.60;;;3.90;;
66020;SDS011;52789;59.980;30.346;2022-12-29T04:21:21;6.17;;;3.20;;
66020;SDS011;52789;59.980;30.346;2022-12-29T04:23:48;5.70;;;3.20;;
66020;SDS011;52789;59.980;30.346;2022-12-29T04:26:13;7.73;;;3.00;;
66020;SDS011;52789;59.980;30.346;2022-12-29T04:28:39;8.13;;;4.77;;
66020;SDS011;52789;59.980;30.346;2022-12-29T04:31:05;6.07;;;3.07;;
66020;SDS011;52789;59.980;30.346;2022-12-29T04:33:30;5.73;;;3.27;;
66020;SDS011;52789;59.980;30.346;2022-12-29T04:35:56;3.83;;;3.23;;
66020;SDS011;52789;59.980;30.346;2022-12-29T04:38:22;7.63;;;3.77;;
66020;SDS011;52789;59.980;30.346;2022-12-29T04:40:49;6.10;;;5.50;;
66020;SDS011;52789;59.980;30.346;2022-12-29T04:43:15;10.73;;;4.10;;
66020;SDS011;52789;59.980;30.346;2022-12-29T04:45:45;6.80;;;4.80;;
66020;SDS011;52789;59.980;30.346;2022-12-29T04:48:11;5.47;;;4.20;;
66020;SDS011;52789;59.980;30.346;2022-12-29T04:50:37;9.80;;;4.30;;
66020;SDS011;52789;59.980;30.346;2022-12-29T04:53:03;6.33;;;3.50;;
66020;SDS011;52789;59.980;30.346;2022-12-29T04:55:29;5.53;;;3.00;;
66020;SDS011;52789;59.980;30.346;2022-12-29T04:57:55;6.37;;;2.73;;
66020;SDS011;52789;59.980;30.346;2022-12-29T05:00:20;6.10;;;3.00;;
66020;SDS011;52789;59.980;30.346;2022-12-29T05:02:46;4.40;;;3.23;;
66020;SDS011;52789;59.980;30.346;2022-12-29T05:05:12;10.03;;;5.00;;
66020;SDS011;52789;59.980;30.346;2022-12-29T05:07:37;7.23;;;4.20;;
66020;SDS011;52789;59.980;30.346;2022-12-29T05:10:04;11.33;;;4.37;;
66020;SDS011;52789;59.980;30.346;2022-12-29T05:12:32;8.57;;;4.07;;
66020;SDS011;52789;59.980;30.346;2022-12-29T05:14:58;8.23;;;4.70;;
66020;SDS011;52789;59.980;30.346;2022-12-29T05:17:24;7.60;;;4.13;;
66020;SDS011;52789;59.980;30.346;2022-12-29T05:19:50;7.03;;;3.60;;
66020;SDS011;52789;59.980;30.346;2022-12-29T05:22:15;6.67;;;3.50;;
66020;SDS011;52789;59.980;30.346;2022-12-29T05:24:41;8.50;;;4.33;;
66020;SDS011;52789;59.980;30.346;2022-12-29T05:27:06;6.13;;;3.67;;
66020;SDS011;52789;59.980;30.346;2022-12-29T05:29:32;6.03;;;4.23;;
66020;SDS011;52789;59.980;30.346;2022-12-29T05:31:57;8.53;;;4.03;;
66020;SDS011;52789;59.980;30.346;2022-12-29T05:34:23;7.43;;;3.47;;
66020;SDS011;52789;59.980;30.346;2022-12-29T05:36:48;8.90;;;4.33;;
66020;SDS011;52789;59.980;30.346;2022-12-29T05:39:14;5.60;;;3.00;;
66020;SDS011;52789;59.980;30.346;2022-12-29T05:41:41;7.93;;;3.40;;
66020;SDS011;52789;59.980;30.346;2022-12-29T05:44:06;5.43;;;3.70;;
66020;SDS011;52789;59.980;30.346;2022-12-29T05:46:32;4.97;;;3.10;;
66020;SDS011;52789;59.980;30.346;2022-12-29T05:48:57;6.10;;;3.43;;
66020;SDS011;52789;59.980;30.346;2022-12-29T05:51:23;10.40;;;3.83;;
66020;SDS011;52789;59.980;30.346;2022-12-29T05:53:48;7.17;;;4.00;;
66020;SDS011;52789;59.980;30.346;2022-12-29T05:56:14;11.40;;;4.20;;
66020;SDS011;52789;59.980;30.346;2022-12-29T05:58:40;5.83;;;4.10;;
66020;SDS011;52789;59.980;30.346;2022-12-29T06:01:06;6.93;;;4.20;;
66020;SDS011;52789;59.980;30.346;2022-12-29T06:03:31;11.93;;;4.37;;
66020;SDS011;52789;59.980;30.346;2022-12-29T06:05:57;8.57;;;4.23;;
66020;SDS011;52789;59.980;30.346;2022-12-29T06:08:22;10.70;;;5.87;;
66020;SDS011;52789;59.980;30.346;2022-12-29T06:10:48;7.97;;;4.30;;
66020;SDS011;52789;59.980;30.346;2022-12-29T06:13:15;9.80;;;5.23;;
66020;SDS011;52789;59.980;30.346;2022-12-29T06:15:40;16.70;;;5.07;;
66020;SDS011;52789;59.980;30.346;2022-12-29T06:18:06;7.50;;;4.60;;
66020;SDS011;52789;59.980;30.346;2022-12-29T06:20:32;9.17;;;4.00;;
66020;SDS011;52789;59.980;30.346;2022-12-29T06:22:57;6.33;;;4.67;;
66020;SDS011;52789;59.980;30.346;2022-12-29T06:25:23;9.27;;;4.20;;
66020;SDS011;52789;59.980;30.346;2022-12-29T06:27:49;8.17;;;4.47;;
66020;SDS011;52789;59.980;30.346;2022-12-29T06:30:14;7.17;;;4.27;;
66020;SDS011;52789;59.980;30.346;2022-12-29T06:32:41;14.77;;;4.97;;
66020;SDS011;52789;59.980;30.346;2022-12-29T06:35:06;8.70;;;4.17;;
66020;SDS011;52789;59.980;30.346;2022-12-29T06:37:32;9.70;;;5.17;;
66020;SDS011;52789;59.980;30.346;2022-12-29T06:39:58;17.77;;;6.13;;
66020;SDS011;52789;59.980;30.346;2022-12-29T06:42:23;5.73;;;4.27;;
66020;SDS011;52789;59.980;30.346;2022-12-29T06:44:50;11.03;;;5.40;;
66020;SDS011;52789;59.980;30.346;2022-12-29T06:47:17;9.43;;;5.27;;
66020;SDS011;52789;59.980;30.346;2022-12-29T06:49:43;11.27;;;5.10;;
66020;SDS011;52789;59.980;30.346;2022-12-29T06:52:09;10.30;;;4.40;;
66020;SDS011;52789;59.980;30.346;2022-12-29T06:54:35;10.07;;;4.20;;
66020;SDS011;52789;59.980;30.346;2022-12-29T06:57:00;20.73;;;6.00;;
66020;SDS011;52789;59.980;30.346;2022-12-29T06:59:26;10.33;;;4.40;;
66020;SDS011;52789;59.980;30.346;2022-12-29T07:01:51;13.13;;;5.60;;
66020;SDS011;52789;59.980;30.346;2022-12-29T07:04:17;5.63;;;4.10;;
66020;SDS011;52789;59.980;30.346;2022-12-29T07:06:43;7.40;;;3.40;;
66020;SDS011;52789;59.980;30.346;2022-12-29T07:09:09;7.67;;;4.07;;
66020;SDS011;52789;59.980;30.346;2022-12-29T07:11:35;6.40;;;3.73;;
66020;SDS011;52789;59.980;30.346;2022-12-29T07:14:01;9.03;;;4.57;;
66020;SDS011;52789;59.980;30.346;2022-12-29T07:16:28;10.70;;;5.00;;
66020;SDS011;52789;59.980;30.346;2022-12-29T07:18:55;10.30;;;4.27;;
66020;SDS011;52789;59.980;30.346;2022-12-29T07:21:21;6.43;;;4.67;;
66020;SDS011;52789;59.980;30.346;2022-12-29T07:23:47;7.20;;;3.70;;
66020;SDS011;52789;59.980;30.346;2022-12-29T07:26:14;6.67;;;3.67;;
66020;SDS011;52789;59.980;30.346;2022-12-29T07:28:44;11.40;;;5.27;;
66020;SDS011;52789;59.980;30.346;2022-12-29T07:31:18;5.90;;;4.40;;
66020;SDS011;52789;59.980;30.346;2022-12-29T07:33:45;8.90;;;3.83;;
66020;SDS011;52789;59.980;30.346;2022-12-29T07:36:12;10.80;;;6.40;;
66020;SDS011;52789;59.980;30.346;2022-12-29T07:38:39;7.53;;;4.37;;
66020;SDS011;52789;59.980;30.346;2022-12-29T07:41:05;8.63;;;4.00;;
66020;SDS011;52789;59.980;30.346;2022-12-29T07:43:36;9.67;;;4.57;;
66020;SDS011;52789;59.980;30.346;2022-12-29T07:46:02;6.03;;;3.90;;
66020;SDS011;52789;59.980;30.346;2022-12-29T07:48:28;11.23;;;4.10;;
66020;SDS011;52789;59.980;30.346;2022-12-29T07:50:53;11.60;;;5.10;;
66020;SDS011;52789;59.980;30.346;2022-12-29T07:53:19;10.33;;;5.07;;
66020;SDS011;52789;59.980;30.346;2022-12-29T07:55:45;7.23;;;4.23;;
66020;SDS011;52789;59.980;30.346;2022-12-29T07:58:10;11.20;;;4.57;;
66020;SDS011;52789;59.980;30.346;2022-12-29T08:00:37;7.40;;;4.53;;
66020;SDS011;52789;59.980;30.346;2022-12-29T08:03:03;9.77;;;4.83;;
66020;SDS011;52789;59.980;30.346;2022-12-29T08:05:30;10.93;;;4.93;;
66020;SDS011;52789;59.980;30.346;2022-12-29T08:07:57;8.20;;;4.50;;
66020;SDS011;52789;59.980;30.346;2022-12-29T08:10:23;14.07;;;5.77;;
66020;SDS011;52789;59.980;30.346;2022-12-29T08:12:49;9.77;;;5.23;;
66020;SDS011;52789;59.980;30.346;2022-12-29T08:15:14;10.73;;;5.57;;
66020;SDS011;52789;59.980;30.346;2022-12-29T08:17:40;9.20;;;4.50;;
66020;SDS011;52789;59.980;30.346;2022-12-29T08:20:06;6.70;;;4.77;;
66020;SDS011;52789;59.980;30.346;2022-12-29T08:22:32;7.90;;;4.83;;
66020;SDS011;52789;59.980;30.346;2022-12-29T08:24:58;11.33;;;4.33;;
66020;SDS011;52789;59.980;30.346;2022-12-29T08:27:29;7.50;;;4.57;;
66020;SDS011;52789;59.980;30.346;2022-12-29T08:29:54;6.80;;;4.10;;
66020;SDS011;52789;59.980;30.346;2022-12-29T08:32:20;11.63;;;3.87;;
66020;SDS011;52789;59.980;30.346;2022-12-29T08:34:45;8.67;;;5.00;;
66020;SDS011;52789;59.980;30.346;2022-12-29T08:37:11;12.27;;;4.77;;
66020;SDS011;52789;59.980;30.346;2022-12-29T08:39:36;15.23;;;5.53;;
66020;SDS011;52789;59.980;30.346;2022-12-29T08:42:04;13.60;;;6.30;;
66020;SDS011;52789;59.980;30.346;2022-12-29T08:44:30;11.80;;;5.20;;
66020;SDS011;52789;59.980;30.346;2022-12-29T08:46:55;13.63;;;5.63;;
66020;SDS011;52789;59.980;30.346;2022-12-29T08:49:21;19.13;;;6.20;;
66020;SDS011;52789;59.980;30.346;2022-12-29T08:51:46;12.20;;;5.83;;
66020;SDS011;52789;59.980;30.346;2022-12-29T08:54:12;8.17;;;5.30;;
66020;SDS011;52789;59.980;30.346;2022-12-29T08:56:37;10.17;;;5.90;;
66020;SDS011;52789;59.980;30.346;2022-12-29T08:59:03;14.57;;;7.07;;
66020;SDS011;52789;59.980;30.346;2022-12-29T09:01:28;11.83;;;6.37;;
66020;SDS011;52789;59.980;30.346;2022-12-29T09:03:55;17.37;;;8.17;;
66020;SDS011;52789;59.980;30.346;2022-12-29T09:06:20;16.07;;;7.27;;
66020;SDS011;52789;59.980;30.346;2022-12-29T09:08:46;17.30;;;7.90;;
66020;SDS011;52789;59.980;30.346;2022-12-29T09:11:14;18.50;;;8.20;;
66020;SDS011;52789;59.980;30.346;2022-12-29T09:13:41;16.60;;;8.33;;
66020;SDS011;52789;59.980;30.346;2022-12-29T09:16:07;17.37;;;10.27;;
66020;SDS011;52789;59.980;30.346;2022-12-29T09:18:32;16.30;;;6.67;;
66020;SDS011;52789;59.980;30.346;2022-12-29T09:20:59;16.50;;;8.63;;
66020;SDS011;52789;59.980;30.346;2022-12-29T09:23:32;13.30;;;8.10;;
66020;SDS011;52789;59.980;30.346;2022-12-29T09:25:59;11.50;;;7.77;;
66020;SDS011;52789;59.980;30.346;2022-12-29T09:28:25;15.10;;;7.87;;
66020;SDS011;52789;59.980;30.346;2022-12-29T09:30:51;12.10;;;8.30;;
66020;SDS011;52789;59.980;30.346;2022-12-29T09:33:17;17.10;;;9.17;;
66020;SDS011;52789;59.980;30.346;2022-12-29T09:35:45;17.30;;;7.87;;
66020;SDS011;52789;59.980;30.346;2022-12-29T09:38:15;13.40;;;7.67;;
66020;SDS011;52789;59.980;30.346;2022-12-29T09:40:41;15.07;;;9.83;;
66020;SDS011;52789;59.980;30.346;2022-12-29T09:48:37;18.50;;;9.03;;
66020;SDS011;52789;59.980;30.346;2022-12-29T09:51:13;14.27;;;9.43;;
66020;SDS011;52789;59.980;30.346;2022-12-29T09:53:42;19.93;;;9.47;;
66020;SDS011;52789;59.980;30.346;2022-12-29T09:56:32;20.67;;;9.57;;
66020;SDS011;52789;59.980;30.346;2022-12-29T09:59:00;16.70;;;9.20;;
66020;SDS011;52789;59.980;30.346;2022-12-29T10:01:34;16.27;;;10.10;;
66020;SDS011;52789;59.980;30.346;2022-12-29T10:04:06;16.40;;;11.10;;
66020;SDS011;52789;59.980;30.346;2022-12-29T10:15:26;15.80;;;10.50;;
66020;SDS011;52789;59.980;30.346;2022-12-29T10:23:50;18.70;;;12.00;;
66020;SDS011;52789;59.980;30.346;2022-12-29T10:26:18;18.90;;;13.88;;
66020;SDS011;52789;59.980;30.346;2022-12-29T10:28:48;22.27;;;12.93;;
66020;SDS011;52789;59.980;30.346;2022-12-29T10:31:21;21.37;;;13.67;;
66020;SDS011;52789;59.980;30.346;2022-12-29T10:39:47;19.67;;;12.13;;
66020;SDS011;52789;59.980;30.346;2022-12-29T10:44:47;17.13;;;12.20;;
66020;SDS011;52789;59.980;30.346;2022-12-29T10:47:15;18.77;;;13.17;;
66020;SDS011;52789;59.980;30.346;2022-12-29T10:49:45;22.10;;;13.00;;
66020;SDS011;52789;59.980;30.346;2022-12-29T10:52:14;19.90;;;12.85;;
66020;SDS011;52789;59.980;30.346;2022-12-29T11:00:21;24.20;;;12.17;;
66020;SDS011;52789;59.980;30.346;2022-12-29T11:02:51;23.30;;;13.63;;
66020;SDS011;52789;59.980;30.346;2022-12-29T11:08:13;19.13;;;12.80;;
66020;SDS011;52789;59.980;30.346;2022-12-29T11:13:26;20.30;;;12.17;;
66020;SDS011;52789;59.980;30.346;2022-12-29T11:15:54;15.50;;;10.37;;
66020;SDS011;52789;59.980;30.346;2022-12-29T11:18:23;18.30;;;11.47;;
66020;SDS011;52789;59.980;30.346;2022-12-29T11:20:55;16.93;;;10.70;;
66020;SDS011;52789;59.980;30.346;2022-12-29T11:23:37;14.83;;;9.93;;
66020;SDS011;52789;59.980;30.346;2022-12-29T11:28:39;18.50;;;12.40;;
66020;SDS011;52789;59.980;30.346;2022-12-29T11:31:06;20.88;;;11.73;;
66020;SDS011;52789;59.980;30.346;2022-12-29T11:33:34;20.50;;;12.03;;
66020;SDS011;52789;59.980;30.346;2022-12-29T11:38:42;19.03;;;11.90;;
66020;SDS011;52789;59.980;30.346;2022-12-29T11:41:19;22.13;;;12.20;;
66020;SDS011;52789;59.980;30.346;2022-12-29T11:43:50;17.23;;;11.10;;
66020;SDS011;52789;59.980;30.346;2022-12-29T11:46:18;22.77;;;13.47;;
66020;SDS011;52789;59.980;30.346;2022-12-29T11:48:50;23.27;;;10.80;;
66020;SDS011;52789;59.980;30.346;2022-12-29T11:51:21;20.07;;;12.10;;
66020;SDS011;52789;59.980;30.346;2022-12-29T11:53:52;17.03;;;10.53;;
66020;SDS011;52789;59.980;30.346;2022-12-29T11:56:40;15.53;;;11.63;;
66020;SDS011;52789;59.980;30.346;2022-12-29T12:01:51;16.30;;;10.20;;
66020;SDS011;52789;59.980;30.346;2022-12-29T12:04:19;15.70;;;10.97;;
66020;SDS011;52789;59.980;30.346;2022-12-29T12:06:57;17.53;;;9.70;;
66020;SDS011;52789;59.980;30.346;2022-12-29T12:09:29;12.83;;;8.33;;
66020;SDS011;52789;59.980;30.346;2022-12-29T12:12:02;13.47;;;8.50;;
66020;SDS011;52789;59.980;30.346;2022-12-29T12:14:41;12.90;;;8.75;;
66020;SDS011;52789;59.980;30.346;2022-12-29T12:17:25;15.17;;;9.17;;
66020;SDS011;52789;59.980;30.346;2022-12-29T12:20:17;14.67;;;9.23;;
66020;SDS011;52789;59.980;30.346;2022-12-29T12:31:27;13.37;;;8.13;;
66020;SDS011;52789;59.980;30.346;2022-12-29T12:34:13;11.57;;;7.70;;
66020;SDS011;52789;59.980;30.346;2022-12-29T12:39:45;12.43;;;9.02;;
66020;SDS011;52789;59.980;30.346;2022-12-29T12:42:27;16.53;;;10.47;;
66020;SDS011;52789;59.980;30.346;2022-12-29T12:48:13;13.20;;;8.27;;
66020;SDS011;52789;59.980;30.346;2022-12-29T12:54:05;13.98;;;8.48;;
66020;SDS011;52789;59.980;30.346;2022-12-29T12:56:54;12.77;;;8.38;;
66020;SDS011;52789;59.980;30.346;2022-12-29T13:05:20;10.48;;;6.85;;
66020;SDS011;52789;59.980;30.346;2022-12-29T13:11:05;12.47;;;7.50;;
66020;SDS011;52789;59.980;30.346;2022-12-29T13:13:51;10.85;;;8.52;;
66020;SDS011;52789;59.980;30.346;2022-12-29T13:24:25;11.55;;;7.32;;
66020;SDS011;52789;59.980;30.346;2022-12-29T13:29:50;14.43;;;7.53;;
66020;SDS011;52789;59.980;30.346;2022-12-29T13:38:07;12.55;;;6.50;;
66020;SDS011;52789;59.980;30.346;2022-12-29T13:40:36;12.82;;;7.55;;
66020;SDS011;52789;59.980;30.346;2022-12-29T13:43:06;14.10;;;9.52;;
66020;SDS011;52789;59.980;30.346;2022-12-29T13:45:33;11.73;;;7.90;;
66020;SDS011;52789;59.980;30.346;2022-12-29T13:48:17;9.18;;;6.93;;
66020;SDS011;52789;59.980;30.346;2022-12-29T13:50:52;9.80;;;6.30;;
66020;SDS011;52789;59.980;30.346;2022-12-29T13:54:24;8.40;;;6.40;;
66020;SDS011;52789;59.980;30.346;2022-12-29T13:56:26;11.75;;;7.35;;
66020;SDS011;52789;59.980;30.346;2022-12-29T14:01:43;10.13;;;6.73;;
66020;SDS011;52789;59.980;30.346;2022-12-29T14:04:23;10.53;;;6.50;;
66020;SDS011;52789;59.980;30.346;2022-12-29T14:07:36;9.40;;;7.33;;
66020;SDS011;52789;59.980;30.346;2022-12-29T14:09:53;9.30;;;6.17;;
66020;SDS011;52789;59.980;30.346;2022-12-29T14:12:31;7.95;;;5.18;;
66020;SDS011;52789;59.980;30.346;2022-12-29T14:17:36;8.68;;;6.68;;
66020;SDS011;52789;59.980;30.346;2022-12-29T14:20:03;7.03;;;5.30;;
66020;SDS011;52789;59.980;30.346;2022-12-29T14:22:55;6.13;;;5.28;;
66020;SDS011;52789;59.980;30.346;2022-12-29T14:31:00;6.60;;;5.20;;
66020;SDS011;52789;59.980;30.346;2022-12-29T14:33:33;8.38;;;6.10;;
66020;SDS011;52789;59.980;30.346;2022-12-29T14:38:45;8.57;;;5.38;;
66020;SDS011;52789;59.980;30.346;2022-12-29T14:41:16;7.43;;;4.63;;
66020;SDS011;52789;59.980;30.346;2022-12-29T14:43:55;6.27;;;4.97;;
66020;SDS011;52789;59.980;30.346;2022-12-29T14:46:24;7.83;;;4.50;;
66020;SDS011;52789;59.980;30.346;2022-12-29T14:48:54;8.57;;;4.70;;
66020;SDS011;52789;59.980;30.346;2022-12-29T14:51:31;6.60;;;5.10;;
66020;SDS011;52789;59.980;30.346;2022-12-29T14:54:00;8.53;;;4.77;;
66020;SDS011;52789;59.980;30.346;2022-12-29T14:56:45;7.47;;;4.67;;
66020;SDS011;52789;59.980;30.346;2022-12-29T14:59:11;6.80;;;5.17;;
66020;SDS011;52789;59.980;30.346;2022-12-29T15:01:42;6.80;;;4.07;;
66020;SDS011;52789;59.980;30.346;2022-12-29T15:04:21;12.93;;;5.90;;
66020;SDS011;52789;59.980;30.346;2022-12-29T15:06:50;6.97;;;4.80;;
66020;SDS011;52789;59.980;30.346;2022-12-29T15:09:19;8.63;;;4.03;;
66020;SDS011;52789;59.980;30.346;2022-12-29T15:11:48;7.10;;;5.00;;
66020;SDS011;52789;59.980;30.346;2022-12-29T15:14:28;7.80;;;5.00;;
66020;SDS011;52789;59.980;30.346;2022-12-29T15:16:56;8.25;;;5.10;;
66020;SDS011;52789;59.980;30.346;2022-12-29T15:19:23;11.77;;;5.40;;
66020;SDS011;52789;59.980;30.346;2022-12-29T15:21:53;13.20;;;4.83;;
66020;SDS011;52789;59.980;30.346;2022-12-29T15:24:20;9.27;;;4.27;;
66020;SDS011;52789;59.980;30.346;2022-12-29T15:26:46;8.33;;;4.27;;
66020;SDS011;52789;59.980;30.346;2022-12-29T15:32:16;5.53;;;4.43;;
66020;SDS011;52789;59.980;30.346;2022-12-29T15:34:45;11.93;;;5.00;;
66020;SDS011;52789;59.980;30.346;2022-12-29T15:37:19;4.97;;;4.28;;
66020;SDS011;52789;59.980;30.346;2022-12-29T15:39:48;5.60;;;4.97;;
66020;SDS011;52789;59.980;30.346;2022-12-29T15:42:21;6.63;;;4.47;;
66020;SDS011;52789;59.980;30.346;2022-12-29T15:45:05;19.98;;;7.57;;
66020;SDS011;52789;59.980;30.346;2022-12-29T15:47:32;9.65;;;4.93;;
66020;SDS011;52789;59.980;30.346;2022-12-29T15:50:00;9.77;;;4.80;;
66020;SDS011;52789;59.980;30.346;2022-12-29T15:52:29;10.23;;;5.00;;
66020;SDS011;52789;59.980;30.346;2022-12-29T15:54:57;8.85;;;5.10;;
66020;SDS011;52789;59.980;30.346;2022-12-29T15:57:31;8.98;;;4.43;;
66020;SDS011;52789;59.980;30.346;2022-12-29T16:00:03;11.88;;;4.85;;
66020;SDS011;52789;59.980;30.346;2022-12-29T16:02:29;9.20;;;4.85;;
66020;SDS011;52789;59.980;30.346;2022-12-29T16:04:55;6.33;;;4.80;;
66020;SDS011;52789;59.980;30.346;2022-12-29T16:10:00;4.77;;;4.17;;
66020;SDS011;52789;59.980;30.346;2022-12-29T16:12:36;8.55;;;4.97;;
66020;SDS011;52789;59.980;30.346;2022-12-29T16:15:06;10.90;;;5.40;;
66020;SDS011;52789;59.980;30.346;2022-12-29T16:17:43;19.85;;;6.25;;
66020;SDS011;52789;59.980;30.346;2022-12-29T16:22:51;8.10;;;4.28;;
66020;SDS011;52789;59.980;30.346;2022-12-29T16:27:57;10.43;;;5.90;;
66020;SDS011;52789;59.980;30.346;2022-12-29T16:30:28;8.30;;;5.00;;
66020;SDS011;52789;59.980;30.346;2022-12-29T16:32:56;7.53;;;6.20;;
66020;SDS011;52789;59.980;30.346;2022-12-29T16:35:29;11.13;;;5.80;;
66020;SDS011;52789;59.980;30.346;2022-12-29T16:38:15;10.85;;;6.30;;
66020;SDS011;52789;59.980;30.346;2022-12-29T16:40:52;11.55;;;7.13;;
66020;SDS011;52789;59.980;30.346;2022-12-29T16:48:57;8.68;;;6.20;;
66020;SDS011;52789;59.980;30.346;2022-12-29T16:51:33;11.27;;;6.93;;
66020;SDS011;52789;59.980;30.346;2022-12-29T16:54:01;10.80;;;7.35;;
66020;SDS011;52789;59.980;30.346;2022-12-29T16:56:29;12.60;;;8.02;;
66020;SDS011;52789;59.980;30.346;2022-12-29T17:01:28;10.98;;;7.07;;
66020;SDS011;52789;59.980;30.346;2022-12-29T17:03:56;16.23;;;8.15;;
66020;SDS011;52789;59.980;30.346;2022-12-29T17:06:26;19.35;;;10.38;;
66020;SDS011;52789;59.980;30.346;2022-12-29T17:08:51;9.57;;;8.00;;
66020;SDS011;52789;59.980;30.346;2022-12-29T17:16:50;12.38;;;8.00;;
66020;SDS011;52789;59.980;30.346;2022-12-29T17:19:17;15.57;;;8.75;;
66020;SDS011;52789;59.980;30.346;2022-12-29T17:21:45;13.00;;;8.30;;
66020;SDS011;52789;59.980;30.346;2022-12-29T17:24:13;11.50;;;8.63;;
66020;SDS011;52789;59.980;30.346;2022-12-29T17:26:41;15.45;;;8.70;;
66020;SDS011;52789;59.980;30.346;2022-12-29T17:29:09;13.38;;;8.48;;
66020;SDS011;52789;59.980;30.346;2022-12-29T17:31:57;19.58;;;9.40;;
66020;SDS011;52789;59.980;30.346;2022-12-29T17:34:23;11.18;;;8.50;;
66020;SDS011;52789;59.980;30.346;2022-12-29T17:36:51;11.77;;;8.73;;